Time;durP1;ratioP1;P1;durP2;ratioP2;P2;SDS_P1;SDS_P2;PMS_P1;PMS_P2;Temp;Humidity;BMP_temperature;BMP_pressure;BME280_temperature;BME280_humidity;BME280_pressure;Samples;Min_cycle;Max_cycle;Signal;HPM_P1;HPM_P2
2024/04/16 00:00:35;;;;;;;22.10;11.35;;;;;;;12.24;100.00;91490.88;5439029;26;20365;-80
2024/04/16 00:03:01;;;;;;;21.55;12.27;;;;;;;12.24;100.00;91488.25;5451139;26;20034;-81
2024/04/16 00:05:27;;;;;;;21.63;11.85;;;;;;;12.22;100.00;91484.41;5481217;26;20035;-81
2024/04/16 00:07:53;;;;;;;23.00;11.98;;;;;;;12.16;100.00;91470.72;5482570;26;20394;-81
2024/04/16 00:10:19;;;;;;;18.65;11.27;;;;;;;12.14;100.00;91469.53;5479033;26;20408;-81
2024/04/16 00:12:47;;;;;;;23.92;12.82;;;;;;;12.07;100.00;91457.66;5480708;26;20014;-81
2024/04/16 00:15:29;;;;;;;20.35;11.55;;;;;;;12.07;100.00;91462.16;5446363;26;20021;-81
2024/04/16 00:17:56;;;;;;;18.05;11.52;;;;;;;12.06;100.00;91455.38;5466830;26;20465;-81
2024/04/16 00:20:21;;;;;;;16.45;10.70;;;;;;;12.16;100.00;91460.22;5445211;26;19998;-82
2024/04/16 00:22:47;;;;;;;19.17;11.30;;;;;;;12.02;100.00;91449.22;5447422;26;20005;-81
2024/04/16 00:25:13;;;;;;;19.63;12.10;;;;;;;11.94;100.00;91442.19;5449031;26;20014;-81
2024/04/16 00:27:38;;;;;;;20.33;12.25;;;;;;;11.86;100.00;91436.63;5477772;26;19998;-81
2024/04/16 00:30:05;;;;;;;22.13;11.68;;;;;;;11.80;100.00;91437.94;5462376;26;20401;-81
2024/04/16 00:32:30;;;;;;;18.30;11.48;;;;;;;11.75;100.00;91427.59;5455303;26;20010;-81
2024/04/16 00:34:56;;;;;;;17.70;11.90;;;;;;;11.82;100.00;91430.50;5449251;26;20003;-81
2024/04/16 00:37:22;;;;;;;19.42;11.55;;;;;;;11.81;100.00;91428.19;5435721;26;20003;-82
2024/04/16 00:39:48;;;;;;;23.33;12.63;;;;;;;11.80;100.00;91416.19;5427456;26;20010;-81
2024/04/16 00:42:15;;;;;;;18.00;11.70;;;;;;;11.79;100.00;91414.63;5473920;26;20005;-80
2024/04/16 00:44:41;;;;;;;23.52;11.95;;;;;;;11.77;100.00;91412.31;5440959;26;20002;-81
2024/04/16 00:47:11;;;;;;;26.80;13.20;;;;;;;11.77;100.00;91411.56;5464775;26;20022;-81
2024/04/16 00:49:37;;;;;;;22.23;13.00;;;;;;;11.75;100.00;91411.88;5440026;26;20002;-81
2024/04/16 00:52:05;;;;;;;19.85;12.60;;;;;;;11.75;100.00;91404.00;5437393;26;20433;-81
2024/04/16 00:54:32;;;;;;;23.73;13.40;;;;;;;11.72;100.00;91380.31;5478647;26;20474;-81
2024/04/16 00:56:59;;;;;;;25.73;13.10;;;;;;;11.75;100.00;91383.03;5478579;26;20002;-80
2024/04/16 00:59:25;;;;;;;23.95;13.05;;;;;;;11.72;100.00;91372.44;5448862;26;19999;-80
2024/04/16 01:01:54;;;;;;;26.77;13.75;;;;;;;11.67;100.00;91376.78;5482312;26;20085;-80
2024/04/16 01:04:21;;;;;;;23.67;12.98;;;;;;;11.69;100.00;91381.72;5481723;26;19998;-82
2024/04/16 01:06:48;;;;;;;24.13;12.93;;;;;;;11.67;100.00;91383.88;5475903;26;19995;-81
2024/04/16 01:09:14;;;;;;;22.95;13.32;;;;;;;11.64;100.00;91363.53;5463707;26;20414;-81
2024/04/16 01:11:40;;;;;;;22.73;12.57;;;;;;;11.73;100.00;91360.84;5450923;26;19998;-80
2024/04/16 01:14:05;;;;;;;19.55;13.20;;;;;;;11.73;100.00;91356.41;5484333;26;20010;-81
2024/04/16 01:16:31;;;;;;;21.27;12.95;;;;;;;11.80;100.00;91358.50;5477024;26;20523;-81
2024/04/16 01:18:58;;;;;;;18.58;12.77;;;;;;;11.80;100.00;91351.41;5483694;26;20009;-81
2024/04/16 01:21:24;;;;;;;26.90;13.10;;;;;;;11.84;100.00;91351.50;5482111;26;20042;-80
2024/04/16 01:23:50;;;;;;;22.58;13.73;;;;;;;11.85;100.00;91345.19;5481472;26;19998;-80
2024/04/16 01:26:15;;;;;;;18.65;13.15;;;;;;;11.81;100.00;91339.81;5439996;26;20053;-81
2024/04/16 01:28:41;;;;;;;25.50;12.98;;;;;;;11.84;100.00;91336.56;5451295;26;20309;-81
2024/04/16 01:31:06;;;;;;;22.17;13.25;;;;;;;11.84;100.00;91333.16;5463674;26;20083;-81
2024/04/16 01:33:32;;;;;;;20.17;13.13;;;;;;;11.77;100.00;91320.56;5448202;26;20022;-81
2024/04/16 01:35:59;;;;;;;20.52;13.50;;;;;;;11.79;100.00;91326.25;5450912;26;20832;-81
2024/04/16 01:38:25;;;;;;;19.70;12.40;;;;;;;11.81;100.00;91337.19;5475930;26;20072;-80
2024/04/16 01:40:50;;;;;;;19.40;12.82;;;;;;;11.80;100.00;91327.81;5441733;26;20010;-81
2024/04/16 01:43:16;;;;;;;23.83;13.05;;;;;;;11.80;100.00;91327.03;5447860;26;20010;-80
2024/04/16 01:45:41;;;;;;;20.35;13.40;;;;;;;11.83;100.00;91321.16;5445214;26;20018;-80
2024/04/16 01:48:07;;;;;;;24.42;14.13;;;;;;;11.83;100.00;91316.66;5481293;26;20009;-80
2024/04/16 01:50:33;;;;;;;24.30;14.82;;;;;;;11.79;100.00;91310.53;5483394;26;20006;-81
2024/04/16 01:52:59;;;;;;;20.60;13.90;;;;;;;11.80;100.00;91311.31;5444876;26;20002;-81
2024/04/16 01:55:24;;;;;;;24.23;14.20;;;;;;;11.76;100.00;91300.69;5484141;26;20013;-80
2024/04/16 01:57:50;;;;;;;27.33;13.70;;;;;;;11.72;100.00;91297.19;5473427;26;20002;-80
2024/04/16 02:00:16;;;;;;;21.38;13.63;;;;;;;11.69;100.00;91294.44;5469927;26;20009;-80
2024/04/16 02:02:41;;;;;;;24.25;14.82;;;;;;;11.63;100.00;91286.00;5470420;26;20013;-81
2024/04/16 02:05:07;;;;;;;19.55;13.60;;;;;;;11.59;100.00;91291.09;5426474;26;20015;-80
2024/04/16 02:07:33;;;;;;;22.83;13.32;;;;;;;11.54;100.00;91282.69;5475580;26;20006;-80
2024/04/16 02:09:58;;;;;;;21.23;13.48;;;;;;;11.48;100.00;91284.72;5482068;26;20029;-80
2024/04/16 02:12:24;;;;;;;22.25;14.57;;;;;;;11.41;100.00;91279.22;5482274;26;20013;-80
2024/04/16 02:14:51;;;;;;;25.70;14.73;;;;;;;11.35;100.00;91267.41;5465690;26;20058;-80
2024/04/16 02:17:16;;;;;;;24.23;15.32;;;;;;;11.27;100.00;91269.00;5475179;26;20022;-80
2024/04/16 02:19:43;;;;;;;26.83;15.35;;;;;;;11.21;100.00;91275.50;5482997;26;20002;-80
2024/04/16 02:22:09;;;;;;;26.10;16.13;;;;;;;11.15;100.00;91271.56;5475074;26;20006;-80
2024/04/16 02:24:34;;;;;;;26.70;16.65;;;;;;;11.12;100.00;91272.94;5480741;26;20102;-81
2024/04/16 02:27:00;;;;;;;27.02;15.90;;;;;;;11.07;100.00;91262.66;5478604;26;20005;-80
2024/04/16 02:29:27;;;;;;;24.25;16.10;;;;;;;11.06;100.00;91263.75;5473603;26;20346;-79
2024/04/16 02:31:53;;;;;;;28.45;16.23;;;;;;;11.01;100.00;91266.53;5446299;26;19998;-80
2024/04/16 02:34:19;;;;;;;25.05;15.85;;;;;;;11.00;100.00;91255.31;5477405;26;20064;-80
2024/04/16 02:36:44;;;;;;;26.17;15.52;;;;;;;10.99;100.00;91251.16;5447599;26;20330;-80
2024/04/16 02:39:10;;;;;;;23.27;14.60;;;;;;;10.95;100.00;91237.19;5482807;26;19998;-80
2024/04/16 02:41:36;;;;;;;23.55;14.95;;;;;;;10.93;100.00;91235.97;5481353;26;20011;-80
2024/04/16 02:44:01;;;;;;;25.88;16.08;;;;;;;10.87;100.00;91230.13;5481035;26;19994;-80
2024/04/16 02:46:28;;;;;;;26.33;15.25;;;;;;;10.86;100.00;91227.84;5481488;26;19994;-80
2024/04/16 02:48:54;;;;;;;28.15;15.63;;;;;;;10.86;100.00;91222.63;5450320;26;20837;-81
2024/04/16 02:51:21;;;;;;;23.35;15.52;;;;;;;10.84;100.00;91223.69;5443431;26;20036;-81
2024/04/16 02:53:47;;;;;;;23.08;14.77;;;;;;;10.81;100.00;91220.94;5479480;26;20002;-82
2024/04/16 02:56:12;;;;;;;22.42;15.75;;;;;;;10.79;100.00;91223.13;5440985;26;20002;-82
2024/04/16 02:58:38;;;;;;;25.83;15.55;;;;;;;10.76;100.00;91216.66;5471100;26;20009;-82
2024/04/16 03:01:05;;;;;;;25.55;16.38;;;;;;;10.78;100.00;91211.09;5482776;26;20014;-82
2024/04/16 03:03:35;;;;;;;23.58;16.17;;;;;;;10.74;100.00;91208.38;5483612;26;20342;-81
2024/04/16 03:06:01;;;;;;;26.40;16.55;;;;;;;10.79;100.00;91202.19;5480064;26;19994;-81
2024/04/16 03:08:26;;;;;;;25.60;15.60;;;;;;;10.74;100.00;91207.56;5479561;26;20252;-81
2024/04/16 03:10:56;;;;;;;27.38;15.40;;;;;;;10.71;100.00;91195.91;5471446;26;19998;-81
2024/04/16 03:13:22;;;;;;;22.08;15.15;;;;;;;10.68;100.00;91191.31;5473465;26;20006;-81
2024/04/16 03:15:48;;;;;;;21.67;15.05;;;;;;;10.67;100.00;91200.22;5482553;26;19998;-81
2024/04/16 03:18:13;;;;;;;24.70;15.60;;;;;;;10.63;100.00;91192.25;5477637;26;19994;-81
2024/04/16 03:20:39;;;;;;;26.25;16.17;;;;;;;10.59;100.00;91185.38;5479346;26;20002;-81
2024/04/16 03:23:04;;;;;;;25.05;15.30;;;;;;;10.59;100.00;91187.97;5448389;26;20044;-81
2024/04/16 03:25:30;;;;;;;28.65;15.32;;;;;;;10.58;100.00;91182.00;5479747;26;20076;-81
2024/04/16 03:27:56;;;;;;;19.90;14.20;;;;;;;10.56;100.00;91173.69;5478704;26;20009;-81
2024/04/16 03:30:21;;;;;;;26.20;15.02;;;;;;;10.52;100.00;91167.56;5477056;26;20027;-81
2024/04/16 03:32:47;;;;;;;23.30;14.65;;;;;;;10.53;100.00;91165.69;5409745;26;20009;-81
2024/04/16 03:35:12;;;;;;;24.05;14.90;;;;;;;10.49;100.00;91167.41;5440331;26;20017;-80
2024/04/16 03:37:38;;;;;;;31.10;15.32;;;;;;;10.40;100.00;91149.13;5482620;26;20063;-82
2024/04/16 03:40:07;;;;;;;23.60;14.30;;;;;;;10.44;100.00;91152.66;5416221;26;20353;-81
2024/04/16 03:42:33;;;;;;;22.63;15.00;;;;;;;10.38;100.00;91159.16;5477190;26;20045;-81
2024/04/16 03:44:58;;;;;;;24.80;14.13;;;;;;;10.35;100.00;91157.19;5448642;26;20576;-81
2024/04/16 03:47:24;;;;;;;24.60;13.98;;;;;;;10.34;100.00;91150.44;5451032;26;19999;-81
2024/04/16 03:49:49;;;;;;;23.52;14.10;;;;;;;10.33;100.00;91151.50;5453430;26;20047;-81
2024/04/16 03:52:15;;;;;;;22.67;14.43;;;;;;;10.29;100.00;91153.19;5450414;26;19994;-82
2024/04/16 03:54:41;;;;;;;25.20;13.32;;;;;;;10.25;100.00;91153.06;5471019;26;20002;-81
2024/04/16 03:57:06;;;;;;;20.80;12.25;;;;;;;10.40;100.00;91133.44;5429147;26;20213;-81
2024/04/16 04:00:59;;;;;;;12.75;6.97;;;;;;;10.35;100.00;91126.53;5481336;26;20009;-81
2024/04/16 04:02:26;;;;;;;16.52;10.23;;;;;;;10.37;100.00;91142.69;5467710;26;20227;-80
2024/04/16 04:04:52;;;;;;;19.40;10.43;;;;;;;10.48;100.00;91135.25;5437382;26;20002;-80
2024/04/16 04:07:18;;;;;;;21.10;12.93;;;;;;;10.51;100.00;91131.97;5481604;26;20009;-80
2024/04/16 04:09:44;;;;;;;26.60;12.25;;;;;;;10.40;100.00;91143.91;5440218;26;20405;-81
2024/04/16 04:12:10;;;;;;;19.70;11.07;;;;;;;10.31;100.00;91143.19;5482328;26;20094;-80
2024/04/16 04:14:35;;;;;;;19.45;11.05;;;;;;;10.21;100.00;91137.22;5428034;26;20015;-81
2024/04/16 04:17:01;;;;;;;18.67;11.98;;;;;;;10.13;100.00;91119.75;5437874;26;20000;-81
2024/04/16 04:19:27;;;;;;;18.10;10.15;;;;;;;10.33;100.00;91133.94;5440320;26;20007;-81
2024/04/16 04:21:53;;;;;;;19.80;11.68;;;;;;;10.26;100.00;91120.56;5440858;26;20048;-81
2024/04/16 04:24:19;;;;;;;15.25;7.78;;;;;;;10.30;100.00;91120.75;5443545;26;20056;-81
2024/04/16 04:26:45;;;;;;;13.95;9.50;;;;;;;10.28;100.00;91134.09;5441946;26;20010;-81
2024/04/16 04:29:11;;;;;;;14.40;9.77;;;;;;;10.25;100.00;91131.38;5439975;26;20068;-80
2024/04/16 04:31:37;;;;;;;13.77;9.07;;;;;;;10.20;100.00;91133.09;5437769;26;20071;-80
2024/04/16 04:34:02;;;;;;;14.18;8.50;;;;;;;10.21;100.00;91126.00;5438758;26;19995;-80
2024/04/16 04:36:29;;;;;;;6.85;3.53;;;;;;;10.27;100.00;91129.97;5443501;26;20324;-82
2024/04/16 04:38:54;;;;;;;8.18;1.90;;;;;;;10.31;100.00;91125.66;5444793;26;20014;-80
2024/04/16 04:41:20;;;;;;;11.02;5.68;;;;;;;10.36;100.00;91120.25;5439308;26;20085;-80
2024/04/16 04:43:46;;;;;;;14.15;7.28;;;;;;;10.41;100.00;91133.13;5437734;26;20002;-82
2024/04/16 04:46:11;;;;;;;6.40;2.60;;;;;;;10.52;100.00;91125.69;5445694;26;19998;-81
2024/04/16 04:48:37;;;;;;;6.07;2.63;;;;;;;10.54;100.00;91133.97;5443006;26;20007;-81
2024/04/16 04:51:03;;;;;;;3.30;1.60;;;;;;;10.50;95.06;91122.63;5428415;26;20585;-81
2024/04/16 04:53:29;;;;;;;6.07;2.67;;;;;;;10.75;100.00;91128.00;5447648;26;20428;-80
2024/04/16 04:55:54;;;;;;;4.60;1.60;;;;;;;10.58;95.34;91129.66;5446531;26;19999;-82
2024/04/16 04:58:20;;;;;;;2.60;1.15;;;;;;;10.83;62.61;91141.00;5439229;26;20011;-83
2024/04/16 05:00:47;;;;;;;3.22;1.40;;;;;;;10.94;63.89;91143.22;5445435;26;20006;-81
2024/04/16 05:03:12;;;;;;;6.35;1.95;;;;;;;11.10;66.54;91133.72;5446288;26;20111;-82
2024/04/16 05:05:41;;;;;;;2.80;1.05;;;;;;;11.11;58.53;91137.84;5431912;26;20020;-83
2024/04/16 05:08:07;;;;;;;3.22;1.70;;;;;;;11.35;66.55;91139.03;5455577;26;20011;-83
2024/04/16 05:10:33;;;;;;;5.22;2.10;;;;;;;11.32;80.11;91150.91;5434478;26;20044;-83
2024/04/16 05:12:58;;;;;;;6.60;1.90;;;;;;;11.32;85.25;91140.44;5439340;26;20013;-83
2024/04/16 05:15:25;;;;;;;4.35;1.60;;;;;;;11.35;80.80;91139.03;5443420;26;20003;-83
2024/04/16 05:17:50;;;;;;;3.70;1.50;;;;;;;11.32;74.99;91140.44;5431503;26;20334;-83
2024/04/16 05:20:16;;;;;;;5.40;1.40;;;;;;;11.43;59.60;91128.47;5435675;26;20532;-83
2024/04/16 05:22:45;;;;;;;5.15;2.00;;;;;;;11.62;75.86;91135.06;5433917;26;20564;-82
2024/04/16 05:25:11;;;;;;;2.97;1.80;;;;;;;11.74;74.00;91129.84;5441529;26;20522;-83
2024/04/16 05:27:37;;;;;;;3.58;1.80;;;;;;;11.81;76.92;91140.56;5443614;26;20274;-82
2024/04/16 05:30:04;;;;;;;5.38;1.98;;;;;;;11.82;79.44;91151.81;5435208;26;20596;-83
2024/04/16 05:32:31;;;;;;;6.85;1.80;;;;;;;11.82;74.18;91139.47;5441678;26;19999;-83
2024/04/16 05:34:56;;;;;;;4.45;1.75;;;;;;;11.97;77.29;91148.56;5441709;26;20436;-83
2024/04/16 05:37:22;;;;;;;5.68;1.60;;;;;;;12.02;80.71;91155.47;5440930;26;20031;-83
2024/04/16 05:39:47;;;;;;;3.65;1.67;;;;;;;12.08;76.68;91148.91;5427753;26;20009;-84
2024/04/16 05:42:13;;;;;;;3.03;1.10;;;;;;;12.31;79.67;91138.00;5435252;26;20006;-83
2024/04/16 05:44:39;;;;;;;2.33;1.48;;;;;;;12.37;80.30;91145.31;5440475;26;20010;-83
2024/04/16 05:47:04;;;;;;;2.83;1.48;;;;;;;12.33;57.47;91131.31;5456208;26;20043;-83
2024/04/16 05:49:30;;;;;;;4.50;1.38;;;;;;;12.44;62.11;91150.00;5442322;26;20388;-83
2024/04/16 05:51:57;;;;;;;1.55;0.70;;;;;;;12.49;48.45;91123.53;5440646;26;20017;-82
2024/04/16 05:54:27;;;;;;;2.10;1.00;;;;;;;12.63;40.04;91136.31;5430366;26;19999;-83
2024/04/16 05:56:53;;;;;;;2.50;1.40;;;;;;;12.83;55.16;91132.75;5433051;26;20354;-83
2024/04/16 05:59:24;;;;;;;3.40;1.40;;;;;;;12.99;61.73;91138.09;5438246;26;20020;-82
2024/04/16 06:01:49;;;;;;;2.80;1.23;;;;;;;13.10;61.90;91128.66;5439114;26;20075;-83
2024/04/16 06:04:15;;;;;;;2.22;1.15;;;;;;;13.25;54.62;91129.03;5441758;26;20010;-83
2024/04/16 06:06:40;;;;;;;2.60;1.20;;;;;;;13.44;55.89;91131.06;5441978;26;20010;-82
2024/04/16 06:09:06;;;;;;;2.20;1.02;;;;;;;13.59;49.95;91127.69;5444022;26;20007;-82
2024/04/16 06:11:31;;;;;;;2.50;1.20;;;;;;;13.90;48.53;91116.44;5443669;26;19999;-82
2024/04/16 06:14:00;;;;;;;2.40;1.30;;;;;;;13.95;53.38;91128.56;5425105;26;20568;-83
2024/04/16 06:16:26;;;;;;;2.60;1.00;;;;;;;14.16;46.45;91133.56;5463802;26;20306;-83
2024/04/16 06:18:52;;;;;;;3.35;1.00;;;;;;;14.27;40.38;91131.19;5439194;26;20071;-83
2024/04/16 06:21:18;;;;;;;4.30;0.60;;;;;;;14.84;35.69;91123.81;5447749;26;19994;-83
2024/04/16 06:23:44;;;;;;;3.42;0.70;;;;;;;16.26;34.06;91109.06;5441734;26;19999;-83
2024/04/16 06:26:09;;;;;;;1.42;0.90;;;;;;;17.61;35.12;91119.91;5432356;26;20014;-83
2024/04/16 06:28:36;;;;;;;3.72;1.27;;;;;;;18.88;31.90;91120.59;5440277;26;20510;-82
2024/04/16 06:31:01;;;;;;;2.88;0.88;;;;;;;19.68;29.34;91109.19;5470858;26;20010;-83
2024/04/16 06:33:28;;;;;;;2.90;1.20;;;;;;;20.43;28.34;91107.78;5446217;26;20080;-84
2024/04/16 06:35:54;;;;;;;2.05;0.85;;;;;;;21.26;26.34;91106.53;5444202;26;20485;-84
2024/04/16 06:38:21;;;;;;;5.55;0.90;;;;;;;21.33;25.71;91101.19;5444761;26;20351;-83
2024/04/16 06:40:47;;;;;;;1.15;0.50;;;;;;;22.11;23.41;91095.84;5432712;26;20066;-84
2024/04/16 06:43:12;;;;;;;0.68;0.52;;;;;;;22.58;23.35;91080.28;5446535;26;20461;-84
2024/04/16 06:45:38;;;;;;;1.30;0.80;;;;;;;22.79;22.08;91096.13;5447354;26;20011;-83
2024/04/16 06:48:04;;;;;;;1.25;0.70;;;;;;;22.18;22.24;91085.91;5434318;26;20025;-84
2024/04/16 06:50:30;;;;;;;1.08;0.77;;;;;;;22.84;22.95;91081.59;5416051;26;20011;-84
2024/04/16 06:52:55;;;;;;;2.95;0.57;;;;;;;23.11;23.08;91070.28;5413261;26;20072;-84
2024/04/16 06:55:21;;;;;;;4.03;0.60;;;;;;;22.73;22.84;91071.00;5442117;26;19995;-83
2024/04/16 06:57:47;;;;;;;1.90;0.75;;;;;;;22.27;23.83;91077.50;5444459;26;20005;-84
2024/04/16 07:00:13;;;;;;;1.20;0.80;;;;;;;22.13;23.15;91057.00;5434743;26;20000;-83
2024/04/16 07:02:39;;;;;;;1.00;0.68;;;;;;;22.08;24.11;91059.34;5440477;26;19999;-83
2024/04/16 07:05:05;;;;;;;3.70;0.80;;;;;;;21.62;24.47;91053.91;5443477;26;20014;-83
2024/04/16 07:07:30;;;;;;;1.95;0.70;;;;;;;20.31;23.26;91048.56;5438774;26;20042;-84
2024/04/16 07:09:56;;;;;;;1.08;0.52;;;;;;;20.32;25.52;91060.72;5431416;26;20495;-83
2024/04/16 07:12:22;;;;;;;1.88;0.70;;;;;;;20.30;23.76;91046.28;5439613;26;19998;-84
2024/04/16 07:14:47;;;;;;;17.35;2.63;;;;;;;19.83;26.22;91061.44;5445160;26;20008;-84
2024/04/16 07:17:13;;;;;;;2.53;0.90;;;;;;;19.55;26.40;91068.19;5443326;26;20335;-83
2024/04/16 07:19:38;;;;;;;3.42;1.00;;;;;;;19.48;25.96;91068.94;5440279;26;20015;-84
2024/04/16 07:22:04;;;;;;;3.92;1.02;;;;;;;19.00;26.41;91044.50;5439997;26;20202;-83
2024/04/16 07:24:30;;;;;;;0.77;0.50;;;;;;;19.27;27.20;91056.38;5426770;26;20093;-84
2024/04/16 07:26:55;;;;;;;2.95;0.85;;;;;;;19.53;25.13;91051.88;5446137;26;20047;-83
2024/04/16 07:29:21;;;;;;;5.13;1.05;;;;;;;19.51;26.47;91043.53;5437250;26;19999;-84
2024/04/16 07:31:47;;;;;;;4.18;1.17;;;;;;;19.21;26.90;91060.53;5438917;26;20013;-83
2024/04/16 07:34:12;;;;;;;1.70;0.88;;;;;;;19.19;24.88;91054.81;5430632;26;19995;-84
2024/04/16 07:36:39;;;;;;;2.30;0.70;;;;;;;19.31;25.56;91054.47;5435058;26;20079;-83
2024/04/16 07:39:05;;;;;;;0.63;0.50;;;;;;;19.34;26.07;91053.75;5440690;26;20002;-83
2024/04/16 07:41:31;;;;;;;2.10;0.65;;;;;;;19.59;26.50;91062.88;5443063;26;20015;-83
2024/04/16 07:43:56;;;;;;;0.77;0.65;;;;;;;19.51;25.06;91062.88;5438464;26;20031;-84
2024/04/16 07:46:22;;;;;;;1.02;0.60;;;;;;;19.33;25.58;91080.63;5430625;26;20009;-83
2024/04/16 07:48:48;;;;;;;0.75;0.50;;;;;;;18.93;25.56;91061.91;5439800;26;20003;-83
2024/04/16 07:51:13;;;;;;;0.65;0.50;;;;;;;19.01;24.96;91052.09;5433715;26;20014;-81
2024/04/16 07:53:39;;;;;;;2.45;0.70;;;;;;;18.83;26.25;91070.56;5461190;26;20052;-82
2024/04/16 07:56:06;;;;;;;0.80;0.60;;;;;;;18.76;26.42;91069.75;5437234;26;20494;-82
2024/04/16 07:58:32;;;;;;;1.65;0.60;;;;;;;19.11;25.67;91087.75;5473395;26;20011;-80
2024/04/16 08:00:58;;;;;;;3.22;0.52;;;;;;;19.06;25.43;91069.53;5447499;26;20003;-80
2024/04/16 08:03:23;;;;;;;1.55;0.70;;;;;;;19.20;24.63;91084.75;5441732;26;20460;-79
2024/04/16 08:05:49;;;;;;;0.40;0.40;;;;;;;19.13;26.45;91072.22;5447884;26;20002;-80
2024/04/16 08:08:15;;;;;;;1.35;0.60;;;;;;;18.34;23.97;91076.31;5415353;26;20466;-80
2024/04/16 08:10:42;;;;;;;0.88;0.52;;;;;;;18.58;26.12;91099.56;5446441;26;19999;-80
2024/04/16 08:13:07;;;;;;;2.25;0.60;;;;;;;18.79;24.64;91069.78;5442548;26;20653;-79
2024/04/16 08:15:33;;;;;;;1.63;0.70;;;;;;;18.81;22.74;91107.28;5431904;26;20014;-79
2024/04/16 08:17:59;;;;;;;0.80;0.40;;;;;;;18.79;23.78;91106.91;5425027;26;20011;-80
2024/04/16 08:20:25;;;;;;;0.57;0.40;;;;;;;18.62;24.40;91095.06;5446100;26;20062;-80
2024/04/16 08:22:52;;;;;;;2.38;0.40;;;;;;;18.68;23.87;91114.00;5443945;26;20010;-79
2024/04/16 08:25:18;;;;;;;0.40;0.38;;;;;;;18.80;23.84;91120.91;5445715;26;20010;-79
2024/04/16 08:27:43;;;;;;;0.65;0.47;;;;;;;18.49;23.50;91096.47;5414128;26;19999;-81
2024/04/16 08:30:10;;;;;;;1.08;0.57;;;;;;;18.66;23.79;91106.41;5426904;26;20022;-80
2024/04/16 08:32:35;;;;;;;1.60;0.50;;;;;;;18.49;23.07;91107.81;5445318;26;20011;-79
2024/04/16 08:35:01;;;;;;;0.45;0.40;;;;;;;18.51;22.76;91094.22;5472800;26;20003;-79
2024/04/16 08:37:30;;;;;;;0.63;0.47;;;;;;;18.47;24.41;91086.22;5441177;26;20831;-79
2024/04/16 08:39:55;;;;;;;1.73;0.68;;;;;;;18.36;23.46;91109.25;5444201;26;20394;-80
2024/04/16 08:42:22;;;;;;;1.90;0.40;;;;;;;18.43;23.20;91142.97;5443410;26;20474;-79
2024/04/16 08:44:48;;;;;;;1.80;0.40;;;;;;;18.38;24.26;91148.63;5440510;26;20014;-79
2024/04/16 08:47:17;;;;;;;0.50;0.45;;;;;;;18.27;23.25;91153.81;5432791;26;20390;-80
2024/04/16 08:49:44;;;;;;;0.57;0.50;;;;;;;18.47;23.26;91173.66;5444113;26;20517;-80
2024/04/16 08:52:12;;;;;;;3.08;0.60;;;;;;;18.40;22.90;91172.84;5460735;26;20511;-79
2024/04/16 08:54:38;;;;;;;0.40;0.35;;;;;;;18.12;22.54;91170.72;5444583;26;20011;-79
2024/04/16 08:57:06;;;;;;;0.45;0.45;;;;;;;18.03;22.83;91187.63;5442669;26;20346;-80
2024/04/16 08:59:32;;;;;;;1.33;0.40;;;;;;;18.07;23.36;91177.84;5428287;26;20011;-80
2024/04/16 09:02:00;;;;;;;0.50;0.50;;;;;;;17.96;24.02;91176.97;5405330;26;20480;-80
2024/04/16 09:04:26;;;;;;;0.75;0.60;;;;;;;17.96;23.67;91202.69;5428325;26;20003;-80
2024/04/16 09:06:53;;;;;;;3.92;0.60;;;;;;;17.67;23.71;91207.63;5444571;26;20009;-80
2024/04/16 09:09:19;;;;;;;0.55;0.47;;;;;;;17.80;24.71;91205.53;5444875;26;19991;-80
2024/04/16 09:11:45;;;;;;;0.32;0.32;;;;;;;17.95;23.38;91207.25;5443116;26;19999;-80
2024/04/16 09:14:11;;;;;;;2.50;0.75;;;;;;;17.94;24.75;91211.00;5443670;26;19999;-80
2024/04/16 09:16:37;;;;;;;0.50;0.50;;;;;;;18.17;25.15;91202.94;5432244;26;20052;-81
2024/04/16 09:19:10;;;;;;;0.75;0.40;;;;;;;18.16;23.99;91211.22;5438888;26;20297;-80
2024/04/16 09:21:36;;;;;;;2.17;0.38;;;;;;;18.09;24.54;91199.44;5431347;26;20664;-80
2024/04/16 09:24:05;;;;;;;0.63;0.50;;;;;;;18.20;23.69;91233.22;5410701;26;20050;-79
2024/04/16 09:26:37;;;;;;;0.90;0.50;;;;;;;18.10;24.28;91230.09;5414118;26;20003;-80
2024/04/16 09:29:03;;;;;;;0.30;0.30;;;;;;;17.87;24.38;91232.09;5431640;26;20335;-80
2024/04/16 09:31:29;;;;;;;0.85;0.47;;;;;;;18.10;24.63;91246.00;5465424;26;20450;-80
2024/04/16 09:34:08;;;;;;;0.45;0.45;;;;;;;18.31;24.17;91228.78;5416204;26;20091;-79
2024/04/16 09:36:34;;;;;;;0.30;0.30;;;;;;;18.25;24.53;91240.81;5434610;26;20358;-79
2024/04/16 09:39:00;;;;;;;0.77;0.40;;;;;;;18.27;22.69;91231.38;5467658;26;20125;-80
2024/04/16 09:41:30;;;;;;;0.95;0.55;;;;;;;18.34;24.25;91233.34;5439250;26;20003;-80
2024/04/16 09:43:58;;;;;;;1.40;0.65;;;;;;;18.21;24.10;91243.44;5446768;26;20368;-80
2024/04/16 09:46:24;;;;;;;0.45;0.40;;;;;;;18.37;24.53;91253.81;5443932;26;20003;-80
2024/04/16 09:48:52;;;;;;;0.98;0.50;;;;;;;18.33;22.92;91239.78;5448081;26;20362;-80
2024/04/16 09:51:19;;;;;;;0.65;0.40;;;;;;;18.58;24.19;91260.44;5435628;26;20442;-80
2024/04/16 09:53:48;;;;;;;0.52;0.43;;;;;;;18.63;23.36;91265.41;5440052;26;19999;-81
2024/04/16 09:56:16;;;;;;;1.33;0.70;;;;;;;18.64;23.76;91267.72;5434267;26;20014;-80
2024/04/16 09:58:49;;;;;;;1.83;0.45;;;;;;;18.64;23.67;91267.72;5443404;26;20126;-81
2024/04/16 10:01:16;;;;;;;0.45;0.43;;;;;;;18.81;23.50;91266.34;5446810;26;20076;-79
2024/04/16 10:03:43;;;;;;;0.75;0.40;;;;;;;18.91;23.00;91281.59;5448879;26;20018;-79
2024/04/16 10:06:09;;;;;;;0.30;0.30;;;;;;;18.93;22.55;91278.56;5434244;26;20363;-81
2024/04/16 10:08:35;;;;;;;1.25;0.60;;;;;;;18.73;22.99;91272.69;5447074;26;20045;-81
2024/04/16 10:11:02;;;;;;;0.50;0.50;;;;;;;18.56;22.87;91275.94;5427785;26;20007;-80
2024/04/16 10:13:28;;;;;;;0.45;0.40;;;;;;;18.46;23.20;91283.44;5443563;26;19995;-81
2024/04/16 10:15:56;;;;;;;0.40;0.40;;;;;;;18.58;24.01;91281.66;5439475;26;20009;-80
2024/04/16 10:18:21;;;;;;;1.33;0.47;;;;;;;18.72;23.77;91289.72;5447355;26;20134;-80
2024/04/16 10:20:52;;;;;;;0.50;0.50;;;;;;;18.75;21.33;91299.59;5445847;26;20003;-81
2024/04/16 10:23:20;;;;;;;0.52;0.52;;;;;;;18.75;21.75;91288.97;5445210;26;20007;-82
2024/04/16 10:25:50;;;;;;;3.17;0.45;;;;;;;18.95;22.89;91302.81;5446012;26;20446;-80
2024/04/16 10:28:28;;;;;;;0.75;0.57;;;;;;;18.88;20.96;91298.22;5435681;26;20014;-80
2024/04/16 10:30:59;;;;;;;2.22;0.50;;;;;;;18.89;23.42;91304.28;5447415;26;20021;-81
2024/04/16 10:33:26;;;;;;;1.08;0.65;;;;;;;19.19;23.41;91300.75;5444588;26;20009;-81
2024/04/16 10:35:55;;;;;;;0.40;0.40;;;;;;;19.01;19.67;91290.75;5434888;26;19998;-80
2024/04/16 10:38:23;;;;;;;1.75;0.60;;;;;;;19.20;20.74;91292.41;5440385;26;20007;-80
2024/04/16 10:40:56;;;;;;;1.42;0.60;;;;;;;19.16;21.55;91306.78;5444648;26;20025;-81
2024/04/16 10:43:26;;;;;;;4.28;0.50;;;;;;;19.22;23.37;91300.00;5435834;26;20003;-80
2024/04/16 10:45:53;;;;;;;0.30;0.30;;;;;;;19.40;22.17;91295.59;5441805;26;19999;-80
2024/04/16 10:48:22;;;;;;;0.98;0.50;;;;;;;19.39;20.98;91314.53;5445509;26;20364;-79
2024/04/16 10:50:49;;;;;;;0.65;0.40;;;;;;;19.56;20.27;91317.28;5442875;26;19995;-81
2024/04/16 10:53:19;;;;;;;1.17;0.60;;;;;;;19.14;19.28;91305.25;5449088;26;20010;-80
2024/04/16 10:55:46;;;;;;;0.60;0.43;;;;;;;18.80;19.40;91309.91;5450107;26;20075;-82
2024/04/16 10:58:15;;;;;;;1.90;0.65;;;;;;;18.64;19.74;91296.06;5450984;26;20400;-81
2024/04/16 11:00:41;;;;;;;0.82;0.60;;;;;;;18.24;18.99;91292.28;5443301;26;20351;-80
2024/04/16 11:03:10;;;;;;;1.85;0.52;;;;;;;18.49;19.63;91290.66;5429641;26;20533;-81
2024/04/16 11:05:37;;;;;;;2.85;0.50;;;;;;;18.58;21.48;91308.16;5441282;26;19999;-81
2024/04/16 11:08:03;;;;;;;0.70;0.50;;;;;;;18.69;20.97;91314.31;5441940;26;19998;-80
2024/04/16 11:10:29;;;;;;;1.17;0.60;;;;;;;18.95;21.15;91313.44;5442364;26;20516;-80
2024/04/16 11:12:54;;;;;;;0.73;0.60;;;;;;;18.58;18.71;91310.81;5445064;26;19999;-79
2024/04/16 11:15:21;;;;;;;0.85;0.40;;;;;;;18.44;19.11;91280.38;5436566;26;20036;-80
2024/04/16 11:17:46;;;;;;;1.73;0.65;;;;;;;18.18;21.31;91294.47;5413678;26;20006;-80
2024/04/16 11:20:13;;;;;;;1.73;0.57;;;;;;;18.09;20.58;91302.69;5446931;26;20014;-81